• Join FlightAware (Why Join?)
  • Login
  • US Flag 
06:31PM EDT


 

Airport Tracker/Info


-or-


 

Live Flight TrackerFlight Track Log ✈ N82HK ✈ 16-Apr-2014 ✈ KBFI - KSZT

Flight Track Log - Related Links

Times and Time Zones

All times are in EDT time to prevent confusion due to time zone crossing. See the N82HK flight status page for this flight to view local times or setup timezone preferences in your user account.

Time Position Orientation Groundspeed Altitude Reporting Facility
EDT Latitude Longitude Course Direction KTS MPH feet Rate Location/Type
05:40PM 47.5092 -122.2861 141° Southeast 109 125 800  Level Seattle Center
05:40PM 47.4961 -122.2703 141° Southeast 94 108 1,700 1,260 Climbing Seattle Center
05:41PM 47.4711 -122.2414 142° Southeast 119 137 2,900 840 Climbing Seattle Center
05:43PM 47.4425 -122.1758 123° Southeast 163 188 3,900 780 Climbing Seattle Center
05:43PM 47.4539 -122.1394 65° Northeast 186 214 4,500 1,320 Climbing Seattle Center
05:44PM 47.4614 -122.1081 71° East 166 191 5,300 960 Climbing Seattle Center
05:45PM 47.4794 -122.0458 67° East 162 186 6,000 780 Climbing Seattle Center
05:46PM 47.4961 -121.9836 68° East 165 190 7,000 1,080 Climbing Seattle Center
05:47PM 47.5108 -121.9275 69° East 147 169 8,300 1,200 Climbing Seattle Center
05:48PM 47.5261 -121.8731 67° East 137 158 9,500 1,080 Climbing Seattle Center
05:49PM 47.5403 -121.8211 68° East 137 158 10,600 960 Climbing Seattle Center
05:50PM 47.5542 -121.7711 68° East 134 154 11,500 780 Climbing Seattle Center
05:51PM 47.5639 -121.7117 76° East 148 170 12,300 780 Climbing Seattle Center
05:52PM 47.5619 -121.6450 92° East 160 184 13,100 780 Climbing Seattle Center
05:53PM 47.5614 -121.5728 91° East 162 186 13,900 780 Climbing Seattle Center
05:54PM 47.5594 -121.5028 92° East 167 192 14,800 780 Climbing Seattle Center
05:55PM 47.5639 -121.4358 84° East 166 191 15,600 660 Climbing Seattle Center
05:56PM 47.5778 -121.3714 72° East 163 188 16,200 600 Climbing Seattle Center
05:57PM 47.5894 -121.3036 76° East 170 196 16,900 600 Climbing Seattle Center
05:58PM 47.6028 -121.2289 75° East 172 198 17,500 480 Climbing Seattle Center
05:59PM 47.6125 -121.1692 76° East 174 200 17,900 480 Climbing Seattle Center
06:00PM 47.6225 -121.1014 78° East 171 197 18,500 540 Climbing Seattle Center
06:01PM 47.6372 -121.0197 75° East 171 197 19,000 240 Climbing Seattle Center
06:02PM 47.6500 -120.9425 76° East 189 217 19,000  Level Seattle Center
06:03PM 47.6631 -120.8614 77° East 200 230 19,000  Level Seattle Center
06:04PM 47.6769 -120.7800 76° East 209 241 19,000  Level Seattle Center
06:05PM 47.6897 -120.6956 77° East 209 241 19,000  Level Seattle Center
06:06PM 47.7061 -120.6117 74° East 210 242 19,000  Level Seattle Center
06:07PM 47.7169 -120.5283 79° East 209 241 19,000  Level Seattle Center
06:08PM 47.7342 -120.4433 73° East 210 242 19,000  Level Seattle Center
06:09PM 47.7486 -120.3611 75° East 211 243 19,000 -60 Level Seattle Center
06:10PM 47.7611 -120.2825 77° East 203 234 18,900  Descending Seattle Center
06:11PM 47.7731 -120.2017 78° East 202 232 19,000  Climbing Seattle Center
06:12PM 47.7878 -120.1061 77° East 201 231 19,000  Level Seattle Center
06:13PM 47.7772 -120.1172 77° East  Level FlightAware Approximate
06:13PM 47.8006 -120.0272 76° East 200 230 19,000  Level Seattle Center
06:14PM 47.8139 -119.9472 76° East 200 230 19,000  Level Seattle Center
06:15PM 47.8269 -119.8675 76° East 200 230 19,000  Level Seattle Center
06:16PM 47.8386 -119.7917 77° East 195 224 19,000  Level Seattle Center
06:17PM 47.8508 -119.7128 77° East 195 224 19,000  Level Seattle Center
06:18PM 47.8636 -119.6328 77° East 195 224 19,000  Level Seattle Center
06:19PM 47.8750 -119.5550 78° East 195 224 19,000  Level Seattle Center
06:20PM 47.8881 -119.4758 76° East 195 224 19,000  Level Seattle Center
06:21PM 47.9008 -119.3956 77° East 196 226 19,000  Level Seattle Center
06:22PM 47.9133 -119.3169 77° East 196 226 19,000  Level Seattle Center
06:23PM 47.9244 -119.2375 78° East 196 226 19,000  Level Seattle Center
06:24PM 47.9386 -119.1406 78° East 196 226 19,000  Level Seattle Center
06:26PM 47.9517 -119.0586 77° East 197 227 19,000  Level Seattle Center
06:27PM 47.9653 -118.9789 76° East 197 227 19,000  Level Seattle Center
06:28PM 47.9767 -118.8981 78° East 197 227 19,000  Level Seattle Center
06:29PM 47.9883 -118.8172 78° East 197 227 19,000  Level Seattle Center
06:30PM 48.0006 -118.7389 77° East 197 227 19,000  Level Seattle Center
06:31PM 48.0122 -118.6572 78° East 197 227 19,000  Level Seattle Center
06:32PM 48.0236 -118.5761 78° East 198 228 19,000  Level Seattle Center
06:33PM 48.0358 -118.4953 77° East 198 228 19,000  Level Seattle Center
06:34PM 48.0475 -118.4144 78° East 198 228 19,000  Level Seattle Center
06:35PM 48.0589 -118.3339 78° East 198 228 19,000  Level Seattle Center
06:36PM 48.0686 -118.2522 80° East 198 228 19,000  Level Seattle Center
06:37PM 48.0769 -118.1525 83° East 202 232 19,000  Level Seattle Center
06:38PM 48.0861 -118.0689 81° East 202 232 19,000 -60 Level Seattle Center
06:39PM 48.0933 -117.9864 83° East 202 232 18,900  Descending Seattle Center
06:40PM 48.1014 -117.9031 82° East 202 232 19,000  Climbing Seattle Center
06:41PM 48.1078 -117.8208 83° East 202 232 19,000  Level Seattle Center
06:42PM 48.1153 -117.7375 82° East 202 232 19,000  Level Seattle Center
06:43PM 48.1242 -117.6522 81° East 203 234 19,000 -240 Level Seattle Center
06:44PM 48.1314 -117.5664 83° East 204 235 18,600 -720 Descending Seattle Center
06:45PM 48.1400 -117.4597 83° East 220 253 17,600 -1,080 Descending Seattle Center
06:46PM 48.1486 -117.3667 82° East 225 259 16,500 -1,140 Descending Seattle Center
06:47PM 48.1558 -117.2733 83° East 225 259 15,400 -1,140 Descending Seattle Center
06:48PM 48.1636 -117.1925 82° East 227 261 14,300 -1,140 Descending Seattle Center
06:49PM 48.1522 -117.1044 101° East 215 247 13,200 -1,140 Descending Seattle Center
06:50PM 48.1400 -117.0161 102° East 217 250 12,100 -1,200 Descending Seattle Center
06:51PM 48.1239 -116.9139 103° East 212 244 10,800 -1,380 Descending Seattle Center
06:52PM 48.1103 -116.8267 103° East 213 245 9,400 -1,260 Descending Seattle Center
06:53PM 48.0972 -116.7433 103° East 208 239 8,300 -1,020 Descending Seattle Center
06:54PM 48.0850 -116.6636 103° East 201 231 7,400 -840 Descending Seattle Center
06:55PM 48.1075 -116.5989 62° Northeast 196 226 6,600 -720 Descending Seattle Center
06:56PM 48.1578 -116.5906 North 186 214 6,000 -720 Descending Seattle Center
06:57PM 48.2081 -116.5806 North 184 212 5,200 -780 Descending Seattle Center
06:58PM 48.2539 -116.5692 North 183 211 4,500 -720 Descending Seattle Center
07:00PM 48.2833 -116.5500 North  Level FlightAware Approximate
07:07PM 48.2995 -116.5601 North  Level Estimated
07:08PM 48.2995 -116.5601 157° South  Level Estimated
07:09PM 48.2995 -116.5601 North  Level Estimated
07:10PM 48.2995 -116.5601 157° South  Level Estimated
07:11PM 48.2995 -116.5601 North  Level Estimated
07:12PM 48.2995 -116.5601 157° South  Level Estimated